createdAt,value
2023-05-02T00:00:56.376Z,66.72
2023-05-02T00:03:24.534Z,66.14
2023-05-02T00:05:52.528Z,66.34
2023-05-02T00:08:20.397Z,67.57
2023-05-02T00:10:48.316Z,65.74
2023-05-02T00:13:16.197Z,65.40
2023-05-02T00:15:44.134Z,67.04
2023-05-02T00:18:12.263Z,66.58
2023-05-02T00:20:42.206Z,65.41
2023-05-02T00:23:12.333Z,65.00
2023-05-02T00:25:46.682Z,64.81
2023-05-02T00:28:14.550Z,65.78
2023-05-02T00:30:46.579Z,68.79
2023-05-02T00:33:16.056Z,68.24
2023-05-02T00:35:44.117Z,68.48
2023-05-02T00:38:12.181Z,69.80
2023-05-02T00:40:48.308Z,69.43
2023-05-02T00:43:16.786Z,68.87
2023-05-02T00:45:46.499Z,69.04
2023-05-02T00:48:14.887Z,70.68
2023-05-02T00:50:43.597Z,69.48
2023-05-02T00:53:11.563Z,69.39
2023-05-02T00:55:39.688Z,68.52
2023-05-02T00:58:16.931Z,68.38
2023-05-02T01:01:14.068Z,70.61
2023-05-02T01:03:55.693Z,70.53
2023-05-02T01:06:47.411Z,70.66
2023-05-02T01:09:24.569Z,69.46
2023-05-02T01:12:09.861Z,69.01
2023-05-02T01:14:54.041Z,69.20
2023-05-02T01:17:28.780Z,69.89
2023-05-02T01:20:00.938Z,69.86
2023-05-02T01:22:30.459Z,69.49
2023-05-02T01:25:21.016Z,69.31
2023-05-02T01:27:52.177Z,69.31
2023-05-02T01:30:22.706Z,71.29
2023-05-02T01:32:54.408Z,71.26
2023-05-02T01:35:23.773Z,71.03
2023-05-02T01:37:53.446Z,70.61
2023-05-02T01:40:22.942Z,70.25
2023-05-02T01:42:53.402Z,70.24
2023-05-02T01:45:23.621Z,70.38
2023-05-02T01:47:52.394Z,70.20
2023-05-02T01:50:24.709Z,70.24
2023-05-02T01:52:54.815Z,70.29
2023-05-02T01:55:24.478Z,70.83
2023-05-02T01:57:54.649Z,71.78
2023-05-02T02:00:24.114Z,72.28
2023-05-02T02:02:55.175Z,71.71
2023-05-02T02:05:24.846Z,71.82
2023-05-02T02:07:52.820Z,71.70
2023-05-02T02:10:22.661Z,71.94
2023-05-02T02:12:53.588Z,71.43
2023-05-02T02:15:29.205Z,71.48
2023-05-02T02:18:01.513Z,71.46
2023-05-02T02:20:30.523Z,71.56
2023-05-02T02:23:01.125Z,72.56
2023-05-02T02:25:30.020Z,72.75
2023-05-02T02:27:58.445Z,72.25
2023-05-02T02:30:26.478Z,72.69
2023-05-02T02:32:54.399Z,72.76
2023-05-02T02:35:23.725Z,73.35
2023-05-02T02:38:23.676Z,73.31
2023-05-02T02:41:12.424Z,73.48
2023-05-02T02:43:55.095Z,73.37
2023-05-02T02:46:29.091Z,73.18
2023-05-02T02:49:40.472Z,72.85
2023-05-02T02:52:28.121Z,72.23
2023-05-02T02:55:34.432Z,72.00
2023-05-02T02:58:15.080Z,72.18
2023-05-02T03:00:43.644Z,72.24
2023-05-02T03:03:14.362Z,72.35
2023-05-02T03:05:44.627Z,71.96
2023-05-02T03:08:13.920Z,71.99
2023-05-02T03:10:42.289Z,71.43
2023-05-02T03:13:11.161Z,71.11
2023-05-02T03:16:06.769Z,71.24
2023-05-02T03:18:34.779Z,71.24
2023-05-02T03:21:02.755Z,70.99
2023-05-02T03:23:31.307Z,70.98
2023-05-02T03:25:59.880Z,70.66
2023-05-02T03:28:28.329Z,70.82
2023-05-02T03:30:56.322Z,70.54
2023-05-02T03:33:27.367Z,70.24
2023-05-02T03:35:55.315Z,69.99
2023-05-02T03:38:23.804Z,69.59
2023-05-02T03:40:52.590Z,69.92
2023-05-02T03:43:20.610Z,69.75
2023-05-02T03:45:49.177Z,69.36
2023-05-02T03:48:17.668Z,69.32
2023-05-02T03:50:45.837Z,69.02
2023-05-02T03:53:13.816Z,68.78
2023-05-02T03:55:45.960Z,68.68
2023-05-02T03:58:16.966Z,68.64
2023-05-02T04:00:45.398Z,68.45
2023-05-02T04:03:13.636Z,68.00
2023-05-02T04:05:43.837Z,67.79
2023-05-02T04:08:13.596Z,67.67
2023-05-02T04:10:42.482Z,67.64
2023-05-02T04:13:11.782Z,67.36
2023-05-02T04:15:45.780Z,67.06
2023-05-02T04:18:15.839Z,67.05
2023-05-02T04:20:45.418Z,67.00
2023-05-02T04:23:16.250Z,66.83
2023-05-02T04:25:54.656Z,66.71
2023-05-02T04:28:25.775Z,66.59
2023-05-02T04:30:54.736Z,65.84
2023-05-02T04:33:24.760Z,65.14
2023-05-02T04:35:53.500Z,64.76
2023-05-02T04:38:23.299Z,64.21
2023-05-02T04:40:55.273Z,63.55
2023-05-02T04:43:30.941Z,63.22
2023-05-02T04:46:02.354Z,62.86
2023-05-02T04:48:34.376Z,62.44
2023-05-02T04:51:02.445Z,61.76
2023-05-02T04:53:31.736Z,62.10
2023-05-02T04:55:59.815Z,61.83
2023-05-02T04:58:28.274Z,61.62
2023-05-02T05:01:03.295Z,60.79
2023-05-02T05:03:33.411Z,60.35
2023-05-02T05:06:02.759Z,60.32
2023-05-02T05:08:31.386Z,60.55
2023-05-02T05:11:00.511Z,59.62
2023-05-02T05:13:29.071Z,59.73
2023-05-02T05:15:57.039Z,59.63
2023-05-02T05:18:29.000Z,59.31
2023-05-02T05:20:57.184Z,59.23
2023-05-02T05:23:25.095Z,58.80
2023-05-02T05:25:53.129Z,58.49
2023-05-02T05:28:21.214Z,58.62
2023-05-02T05:30:49.178Z,59.18
2023-05-02T05:33:21.258Z,59.17
2023-05-02T05:35:49.973Z,59.02
2023-05-02T05:38:17.897Z,57.99
2023-05-02T05:40:50.067Z,57.58
2023-05-02T05:43:18.274Z,57.86
2023-05-02T05:45:46.262Z,57.74
2023-05-02T05:48:14.169Z,56.29
2023-05-02T05:50:45.693Z,56.24
2023-05-02T05:53:14.988Z,56.28
2023-05-02T05:55:44.348Z,56.33
2023-05-02T05:58:12.554Z,56.06
2023-05-02T06:00:42.495Z,55.94
2023-05-02T06:03:10.491Z,55.57
2023-05-02T06:05:39.659Z,54.78
2023-05-02T06:08:09.041Z,54.81
2023-05-02T06:10:37.014Z,54.16
2023-05-02T06:13:05.782Z,53.64
2023-05-02T06:15:37.280Z,53.28
2023-05-02T06:18:07.158Z,52.65
2023-05-02T06:20:37.351Z,52.31
2023-05-02T06:23:05.286Z,52.54
2023-05-02T06:25:34.058Z,52.38
2023-05-02T06:28:02.048Z,51.66
2023-05-02T06:30:29.951Z,52.06
2023-05-02T06:32:57.909Z,51.40
2023-05-02T06:35:25.840Z,50.95
2023-05-02T06:37:53.727Z,51.25
2023-05-02T06:40:21.560Z,50.71
2023-05-02T06:42:49.461Z,51.12
2023-05-02T06:45:17.394Z,50.58
2023-05-02T06:47:45.487Z,50.72
2023-05-02T06:50:13.513Z,50.12
2023-05-02T06:52:41.472Z,49.27
2023-05-02T06:55:09.522Z,49.57
2023-05-02T06:57:37.539Z,49.27
2023-05-02T07:00:06.396Z,48.27
2023-05-02T07:02:34.372Z,47.43
2023-05-02T07:05:02.496Z,46.16
2023-05-02T07:07:30.423Z,46.46
2023-05-02T07:09:58.531Z,44.66
2023-05-02T07:12:26.994Z,44.08
2023-05-02T07:14:54.919Z,44.81
2023-05-02T07:17:23.772Z,45.32
2023-05-02T07:19:51.914Z,45.49
2023-05-02T07:22:21.114Z,45.39
2023-05-02T07:24:49.377Z,45.05
2023-05-02T07:27:17.273Z,45.47
2023-05-02T07:29:45.188Z,44.76
2023-05-02T07:32:13.177Z,44.42
2023-05-02T07:34:41.222Z,44.27
2023-05-02T07:37:09.138Z,44.04
2023-05-02T07:39:36.990Z,44.14
2023-05-02T07:42:05.036Z,44.90
2023-05-02T07:44:33.838Z,44.53
2023-05-02T07:47:02.942Z,44.69
2023-05-02T07:49:31.624Z,43.94
2023-05-02T07:51:59.556Z,43.63
2023-05-02T07:54:27.838Z,43.86
2023-05-02T07:56:58.399Z,44.21
2023-05-02T07:59:26.342Z,43.84
2023-05-02T08:01:54.229Z,44.26
2023-05-02T08:04:22.192Z,43.70
2023-05-02T08:06:50.458Z,43.10
2023-05-02T08:09:18.654Z,43.46
2023-05-02T08:11:46.915Z,42.63
2023-05-02T08:14:16.357Z,42.63
2023-05-02T08:16:46.227Z,42.87
2023-05-02T08:19:15.914Z,42.14
2023-05-02T08:21:43.906Z,41.32
2023-05-02T08:24:11.887Z,42.04
2023-05-02T08:26:39.777Z,41.51
2023-05-02T08:29:07.789Z,41.42
2023-05-02T08:31:36.141Z,41.06
2023-05-02T08:34:05.971Z,40.65
2023-05-02T08:36:34.025Z,41.07
2023-05-02T08:39:01.991Z,40.91
2023-05-02T08:41:31.344Z,41.04
2023-05-02T08:43:59.953Z,40.95
2023-05-02T08:46:29.150Z,40.32
2023-05-02T08:48:59.291Z,40.41
2023-05-02T08:51:29.417Z,39.81
2023-05-02T08:53:58.898Z,40.04
2023-05-02T08:56:26.945Z,39.46
2023-05-02T08:58:54.848Z,40.06
2023-05-02T09:01:24.399Z,40.01
2023-05-02T09:03:52.798Z,39.87
2023-05-02T09:06:22.885Z,39.85
2023-05-02T09:08:54.706Z,39.64
2023-05-02T09:11:22.653Z,39.55
2023-05-02T09:13:52.366Z,39.69
2023-05-02T09:16:25.554Z,39.60
2023-05-02T09:18:55.891Z,39.80
2023-05-02T09:21:40.240Z,39.92
2023-05-02T09:24:16.343Z,39.46
2023-05-02T09:27:01.179Z,39.64
2023-05-02T09:29:36.249Z,39.78
2023-05-02T09:32:06.296Z,39.64
2023-05-02T09:34:34.531Z,38.95
2023-05-02T09:37:05.584Z,38.88
2023-05-02T09:39:33.535Z,38.91
2023-05-02T09:42:02.830Z,38.83
2023-05-02T09:44:38.286Z,38.94
2023-05-02T09:47:08.843Z,39.60
2023-05-02T09:49:47.085Z,40.00
2023-05-02T09:52:24.028Z,40.42
2023-05-02T09:54:52.900Z,40.77
2023-05-02T09:57:21.008Z,40.82
2023-05-02T10:00:09.139Z,41.18
2023-05-02T10:02:41.722Z,41.18
2023-05-02T10:05:11.180Z,41.40
2023-05-02T10:07:39.703Z,41.62
2023-05-02T10:10:10.529Z,41.48
2023-05-02T10:12:39.578Z,41.53
2023-05-02T10:15:10.004Z,41.33
2023-05-02T10:17:48.199Z,40.87
2023-05-02T10:20:23.482Z,40.64
2023-05-02T10:22:53.283Z,40.64
2023-05-02T10:25:21.446Z,40.37
2023-05-02T10:27:49.422Z,40.47
2023-05-02T10:30:17.855Z,40.23
2023-05-02T10:32:49.401Z,39.95
2023-05-02T10:35:18.065Z,39.96
2023-05-02T10:37:47.658Z,39.61
2023-05-02T10:40:16.339Z,38.83
2023-05-02T10:42:47.553Z,38.46
2023-05-02T10:45:35.976Z,38.52
2023-05-02T10:48:34.149Z,38.30
2023-05-02T10:51:02.153Z,38.18
2023-05-02T10:53:37.579Z,38.63
2023-05-02T10:56:11.260Z,38.74
2023-05-02T10:58:39.484Z,38.59
2023-05-02T11:01:29.022Z,37.48
2023-05-02T11:03:58.113Z,37.36
2023-05-02T11:06:28.024Z,36.93
2023-05-02T11:09:15.179Z,37.42
2023-05-02T11:11:47.032Z,37.56
2023-05-02T11:14:26.659Z,37.61
2023-05-02T11:16:57.660Z,38.02
2023-05-02T11:19:29.016Z,38.47
2023-05-02T11:22:20.993Z,38.69
2023-05-02T11:24:50.249Z,38.92
2023-05-02T11:27:30.590Z,38.89
2023-05-02T11:29:58.699Z,38.70
2023-05-02T11:32:49.872Z,38.81
2023-05-02T11:35:20.873Z,38.96
2023-05-02T11:37:56.132Z,38.96
2023-05-02T11:40:26.164Z,39.26
2023-05-02T11:42:55.040Z,39.66
2023-05-02T11:45:33.443Z,39.90
2023-05-02T11:48:01.557Z,40.06
2023-05-02T11:50:30.506Z,40.07
2023-05-02T11:52:58.759Z,40.25
2023-05-02T11:55:27.406Z,40.28
2023-05-02T11:57:55.901Z,40.39
2023-05-02T12:00:28.664Z,40.94
2023-05-02T12:02:56.994Z,41.21
2023-05-02T12:05:32.818Z,41.87
2023-05-02T12:08:01.952Z,43.02
2023-05-02T12:10:37.840Z,45.25
2023-05-02T12:13:06.795Z,46.31
2023-05-02T12:15:36.554Z,47.01
2023-05-02T12:18:04.784Z,47.08
2023-05-02T12:20:32.863Z,47.03
2023-05-02T12:23:00.909Z,47.30
2023-05-02T12:25:29.061Z,47.35
2023-05-02T12:28:03.702Z,47.27
2023-05-02T12:30:33.139Z,47.01
2023-05-02T12:33:02.275Z,46.68
2023-05-02T12:35:31.782Z,46.77
2023-05-02T12:38:10.657Z,47.14
2023-05-02T12:40:40.158Z,46.98
2023-05-02T12:43:10.767Z,46.84
2023-05-02T12:45:38.734Z,47.39
2023-05-02T12:48:18.822Z,47.26
2023-05-02T12:50:46.864Z,47.49
2023-05-02T12:53:14.805Z,47.43
2023-05-02T12:55:43.074Z,47.62
2023-05-02T12:58:14.970Z,47.70
2023-05-02T13:00:44.808Z,47.73
2023-05-02T13:03:13.698Z,47.85
2023-05-02T13:05:41.628Z,48.40
2023-05-02T13:08:09.514Z,49.05
2023-05-02T13:10:37.530Z,48.63
2023-05-02T13:13:05.656Z,48.93
2023-05-02T13:15:33.571Z,49.27
2023-05-02T13:18:01.585Z,49.26
2023-05-02T13:20:29.655Z,49.30
2023-05-02T13:22:57.829Z,49.23
2023-05-02T13:25:27.038Z,48.98
2023-05-02T13:27:54.958Z,49.20
2023-05-02T13:30:22.914Z,49.42
2023-05-02T13:32:50.900Z,49.67
2023-05-02T13:35:18.745Z,49.70
2023-05-02T13:37:46.785Z,49.59
2023-05-02T13:40:14.786Z,50.07
2023-05-02T13:42:42.700Z,50.34
2023-05-02T13:45:11.189Z,50.32
2023-05-02T13:47:40.158Z,50.49
2023-05-02T13:50:09.579Z,50.51
2023-05-02T13:52:37.431Z,50.75
2023-05-02T13:55:06.130Z,51.03
2023-05-02T13:57:39.822Z,50.84
2023-05-02T14:00:09.862Z,50.61
2023-05-02T14:02:39.241Z,50.80
2023-05-02T14:05:08.337Z,50.95
2023-05-02T14:07:36.197Z,51.24
2023-05-02T14:10:04.758Z,51.49
2023-05-02T14:12:33.458Z,51.72
2023-05-02T14:15:01.418Z,52.05
2023-05-02T14:17:29.370Z,51.97
2023-05-02T14:19:57.313Z,52.00
2023-05-02T14:22:25.316Z,52.20
2023-05-02T14:24:53.225Z,52.38
2023-05-02T14:27:21.787Z,52.22
2023-05-02T14:29:49.657Z,52.38
2023-05-02T14:32:17.789Z,52.21
2023-05-02T14:34:45.693Z,52.12
2023-05-02T14:37:13.557Z,52.42
2023-05-02T14:39:42.648Z,52.57
2023-05-02T14:42:10.603Z,52.94
2023-05-02T14:44:38.587Z,53.03
2023-05-02T14:47:06.527Z,52.95
2023-05-02T14:49:34.598Z,52.58
2023-05-02T14:52:03.124Z,52.54
2023-05-02T14:54:31.419Z,52.72
2023-05-02T14:57:00.018Z,52.95
2023-05-02T14:59:29.304Z,52.19
2023-05-02T15:01:57.558Z,51.81
2023-05-02T15:04:27.263Z,52.01
2023-05-02T15:06:56.707Z,51.94
2023-05-02T15:09:27.833Z,51.90
2023-05-02T15:11:56.783Z,52.04
2023-05-02T15:14:24.797Z,52.00
2023-05-02T15:16:52.754Z,51.92
2023-05-02T15:19:25.252Z,51.93
2023-05-02T15:21:57.700Z,51.85
2023-05-02T15:24:26.199Z,51.88
2023-05-02T15:26:54.390Z,52.16
2023-05-02T15:29:22.489Z,51.97
2023-05-02T15:31:50.507Z,51.89
2023-05-02T15:34:18.492Z,51.08
2023-05-02T15:36:46.357Z,50.77
2023-05-02T15:39:14.279Z,50.84
2023-05-02T15:41:42.299Z,50.32
2023-05-02T15:44:10.282Z,50.65
2023-05-02T15:46:39.555Z,50.62
2023-05-02T15:49:07.696Z,50.50
2023-05-02T15:51:35.650Z,50.61
2023-05-02T15:54:04.219Z,50.57
2023-05-02T15:56:32.432Z,50.65
2023-05-02T15:59:00.423Z,50.65
2023-05-02T16:01:28.511Z,50.66
2023-05-02T16:03:56.785Z,50.88
2023-05-02T16:06:24.912Z,50.79
2023-05-02T16:08:52.862Z,50.95
2023-05-02T16:11:21.138Z,51.30
2023-05-02T16:13:49.061Z,51.67
2023-05-02T16:16:17.059Z,51.91
2023-05-02T16:18:44.980Z,51.79
2023-05-02T16:21:12.930Z,52.27
2023-05-02T16:23:41.215Z,53.14
2023-05-02T16:26:10.281Z,54.35
2023-05-02T16:28:38.244Z,56.07
2023-05-02T16:31:08.041Z,57.69
2023-05-02T16:33:35.980Z,59.34
2023-05-02T16:36:05.192Z,61.01
2023-05-02T16:38:33.156Z,60.68
2023-05-02T16:41:05.146Z,59.92
2023-05-02T16:43:33.488Z,63.49
2023-05-02T16:46:06.099Z,65.37
2023-05-02T16:48:34.817Z,64.00
2023-05-02T16:51:04.343Z,64.13
2023-05-02T16:53:32.620Z,65.34
2023-05-02T16:56:00.619Z,64.07
2023-05-02T16:58:29.336Z,62.93
2023-05-02T17:01:00.394Z,64.95
2023-05-02T17:03:29.668Z,64.21
2023-05-02T17:06:02.156Z,63.32
2023-05-02T17:08:30.617Z,62.91
2023-05-02T17:10:59.026Z,63.40
2023-05-02T17:13:27.032Z,63.74
2023-05-02T17:15:55.153Z,63.94
2023-05-02T17:18:24.214Z,64.09
2023-05-02T17:20:53.425Z,64.71
2023-05-02T17:23:22.126Z,64.51
2023-05-02T17:25:51.717Z,64.93
2023-05-02T17:28:20.277Z,65.04
2023-05-02T17:30:48.621Z,65.16
2023-05-02T17:33:16.702Z,65.43
2023-05-02T17:35:44.710Z,65.63
2023-05-02T17:38:12.576Z,66.35
2023-05-02T17:40:40.532Z,67.12
2023-05-02T17:43:08.533Z,67.08
2023-05-02T17:45:36.502Z,67.30
2023-05-02T17:48:04.477Z,67.71
2023-05-02T17:50:40.321Z,67.90
2023-05-02T17:53:08.439Z,68.47
2023-05-02T17:55:37.520Z,68.76
2023-05-02T17:58:05.445Z,68.74
2023-05-02T18:00:33.749Z,68.88
2023-05-02T18:03:02.697Z,69.08
2023-05-02T18:05:30.916Z,69.53
2023-05-02T18:07:58.934Z,69.80
2023-05-02T18:10:27.549Z,69.97
2023-05-02T18:12:55.468Z,70.39
2023-05-02T18:15:23.524Z,70.37
2023-05-02T18:17:51.898Z,70.62
2023-05-02T18:20:19.875Z,70.71
2023-05-02T18:22:47.756Z,71.20
2023-05-02T18:25:15.724Z,71.37
2023-05-02T18:27:44.469Z,71.67
2023-05-02T18:30:12.469Z,71.86
2023-05-02T18:32:40.391Z,72.32
2023-05-02T18:35:10.614Z,72.46
2023-05-02T18:37:38.661Z,73.22
2023-05-02T18:40:08.592Z,73.36
2023-05-02T18:42:36.608Z,73.54
2023-05-02T18:45:05.615Z,73.71
2023-05-02T18:47:33.888Z,74.21
2023-05-02T18:50:03.141Z,74.29
2023-05-02T18:52:31.259Z,76.59
2023-05-02T18:54:59.858Z,79.20
2023-05-02T18:57:28.056Z,77.82
2023-05-02T18:59:56.973Z,80.48
2023-05-02T19:02:25.002Z,80.47
2023-05-02T19:04:52.969Z,81.35
2023-05-02T19:07:20.833Z,83.48
2023-05-02T19:09:48.749Z,85.07
2023-05-02T19:12:16.652Z,85.31
2023-05-02T19:14:44.955Z,86.07
2023-05-02T19:17:12.819Z,86.75
2023-05-02T19:19:41.826Z,85.84
2023-05-02T19:22:09.848Z,85.15
2023-05-02T19:24:37.786Z,85.01
2023-05-02T19:27:07.865Z,85.00
2023-05-02T19:29:35.869Z,84.54
2023-05-02T19:32:03.937Z,84.56
2023-05-02T19:34:31.943Z,85.64
2023-05-02T19:36:59.802Z,86.49
2023-05-02T19:39:28.529Z,85.80
2023-05-02T19:41:56.573Z,85.07
2023-05-02T19:44:24.543Z,84.48
2023-05-02T19:46:52.452Z,84.47
2023-05-02T19:49:20.951Z,84.05
2023-05-02T19:51:49.399Z,84.43
2023-05-02T19:54:17.334Z,84.00
2023-05-02T19:56:46.766Z,83.91
2023-05-02T19:59:15.242Z,84.33
2023-05-02T20:01:43.590Z,84.07
2023-05-02T20:04:11.813Z,83.93
2023-05-02T20:06:39.887Z,84.17
2023-05-02T20:09:07.844Z,84.05
2023-05-02T20:11:35.820Z,84.22
2023-05-02T20:14:03.880Z,84.27
2023-05-02T20:16:32.475Z,84.17
2023-05-02T20:19:00.589Z,84.55
2023-05-02T20:21:28.626Z,84.44
2023-05-02T20:23:56.518Z,84.23
2023-05-02T20:26:24.404Z,84.23
2023-05-02T20:28:52.353Z,84.42
2023-05-02T20:31:20.281Z,84.65
2023-05-02T20:33:48.218Z,85.30
2023-05-02T20:36:18.142Z,85.13
2023-05-02T20:38:48.070Z,85.13
2023-05-02T20:41:15.937Z,85.39
2023-05-02T20:43:47.375Z,85.47
2023-05-02T20:46:19.277Z,85.76
2023-05-02T20:48:47.784Z,85.42
2023-05-02T20:51:16.170Z,85.94
2023-05-02T20:53:44.837Z,86.13
2023-05-02T20:56:12.853Z,86.23
2023-05-02T20:58:40.985Z,86.30
2023-05-02T21:01:08.948Z,86.44
2023-05-02T21:03:39.803Z,86.45
2023-05-02T21:06:07.963Z,86.77
2023-05-02T21:08:36.996Z,87.72
2023-05-02T21:11:13.779Z,88.54
2023-05-02T21:13:43.284Z,88.14
2023-05-02T21:16:19.106Z,87.92
2023-05-02T21:18:48.175Z,87.76
2023-05-02T21:21:16.217Z,87.61
2023-05-02T21:23:44.361Z,87.97
2023-05-02T21:26:12.384Z,87.84
2023-05-02T21:28:40.414Z,88.09
2023-05-02T21:31:08.476Z,88.07
2023-05-02T21:33:36.778Z,88.07
2023-05-02T21:36:04.835Z,88.42
2023-05-02T21:38:32.825Z,88.51
2023-05-02T21:41:05.784Z,88.82
2023-05-02T21:43:38.350Z,88.61
2023-05-02T21:46:06.471Z,88.56
2023-05-02T21:48:34.429Z,88.70
2023-05-02T21:51:09.545Z,89.01
2023-05-02T21:53:38.012Z,88.88
2023-05-02T21:56:07.300Z,89.35
2023-05-02T21:58:35.327Z,89.80
2023-05-02T22:01:03.441Z,90.26
2023-05-02T22:03:33.949Z,90.64
2023-05-02T22:06:06.689Z,90.77
2023-05-02T22:08:36.370Z,91.32
2023-05-02T22:11:09.497Z,91.55
2023-05-02T22:13:37.558Z,91.58
2023-05-02T22:16:07.015Z,91.30
2023-05-02T22:18:35.225Z,91.19
2023-05-02T22:21:03.889Z,91.54
2023-05-02T22:23:32.069Z,92.04
2023-05-02T22:26:06.162Z,92.75
2023-05-02T22:28:34.043Z,93.24
2023-05-02T22:31:01.959Z,93.44
2023-05-02T22:33:30.033Z,93.49
2023-05-02T22:35:58.420Z,93.26
2023-05-02T22:38:26.364Z,93.36
2023-05-02T22:40:54.192Z,93.00
2023-05-02T22:43:22.108Z,93.17
2023-05-02T22:45:51.408Z,93.14
2023-05-02T22:48:19.480Z,93.32
2023-05-02T22:50:48.915Z,93.54
2023-05-02T22:53:16.980Z,93.34
2023-05-02T22:55:44.847Z,94.54
2023-05-02T22:58:12.826Z,94.76
2023-05-02T23:00:40.786Z,93.86
2023-05-02T23:03:08.805Z,93.69
2023-05-02T23:05:36.674Z,93.66
2023-05-02T23:08:04.778Z,93.73
2023-05-02T23:10:32.718Z,93.74
2023-05-02T23:13:00.724Z,93.90
2023-05-02T23:15:28.621Z,94.15
2023-05-02T23:17:56.567Z,94.49
2023-05-02T23:20:24.546Z,95.21
2023-05-02T23:22:52.669Z,96.03
2023-05-02T23:25:21.431Z,95.56
2023-05-02T23:27:49.291Z,95.09
2023-05-02T23:30:17.182Z,95.01
2023-05-02T23:32:46.034Z,95.47
2023-05-02T23:35:13.995Z,95.24
2023-05-02T23:37:41.977Z,94.79
2023-05-02T23:40:10.141Z,95.77
2023-05-02T23:42:40.539Z,95.75
2023-05-02T23:45:09.882Z,96.50
2023-05-02T23:47:38.447Z,96.26
2023-05-02T23:50:07.553Z,96.29
2023-05-02T23:52:35.441Z,97.10
2023-05-02T23:55:04.337Z,96.91
2023-05-02T23:57:32.213Z,97.56
